sensor_id;sensor_type;location;lat;lon;timestamp;temperature;humidity
21772;DHT22;11047;47.904;8.110;2023-10-09T00:02:13;8.40;99.90
21772;DHT22;11047;47.904;8.110;2023-10-09T00:04:41;8.60;99.90
21772;DHT22;11047;47.904;8.110;2023-10-09T00:07:10;8.30;99.90
21772;DHT22;11047;47.904;8.110;2023-10-09T00:09:37;8.30;99.90
21772;DHT22;11047;47.904;8.110;2023-10-09T00:12:14;8.30;99.90
21772;DHT22;11047;47.904;8.110;2023-10-09T00:14:48;8.20;99.90
21772;DHT22;11047;47.904;8.110;2023-10-09T00:17:16;8.20;99.90
21772;DHT22;11047;47.904;8.110;2023-10-09T00:19:48;8.20;99.90
21772;DHT22;11047;47.904;8.110;2023-10-09T00:22:17;8.20;99.90
21772;DHT22;11047;47.904;8.110;2023-10-09T00:24:55;8.40;99.90
21772;DHT22;11047;47.904;8.110;2023-10-09T00:38:11;8.10;99.90
21772;DHT22;11047;47.904;8.110;2023-10-09T00:40:49;8.20;99.90
21772;DHT22;11047;47.904;8.110;2023-10-09T00:43:22;8.40;99.90
21772;DHT22;11047;47.904;8.110;2023-10-09T00:45:54;8.20;99.90
21772;DHT22;11047;47.904;8.110;2023-10-09T00:48:21;8.20;99.90
21772;DHT22;11047;47.904;8.110;2023-10-09T00:50:57;8.40;99.90
21772;DHT22;11047;47.904;8.110;2023-10-09T00:53:27;8.10;99.90
21772;DHT22;11047;47.904;8.110;2023-10-09T00:56:00;8.20;99.90
21772;DHT22;11047;47.904;8.110;2023-10-09T00:58:37;8.20;99.90
21772;DHT22;11047;47.904;8.110;2023-10-09T01:01:05;8.00;99.90
21772;DHT22;11047;47.904;8.110;2023-10-09T01:03:34;8.10;99.90
21772;DHT22;11047;47.904;8.110;2023-10-09T01:06:05;8.10;99.90
21772;DHT22;11047;47.904;8.110;2023-10-09T01:08:43;8.00;99.90
21772;DHT22;11047;47.904;8.110;2023-10-09T01:11:20;7.90;99.90
21772;DHT22;11047;47.904;8.110;2023-10-09T01:13:49;8.00;99.90
21772;DHT22;11047;47.904;8.110;2023-10-09T01:16:23;7.80;99.90
21772;DHT22;11047;47.904;8.110;2023-10-09T01:18:51;7.90;99.90
21772;DHT22;11047;47.904;8.110;2023-10-09T01:21:18;8.00;99.90
21772;DHT22;11047;47.904;8.110;2023-10-09T01:23:51;8.00;99.90
21772;DHT22;11047;47.904;8.110;2023-10-09T01:26:33;8.00;99.90
21772;DHT22;11047;47.904;8.110;2023-10-09T01:29:05;8.00;99.90
21772;DHT22;11047;47.904;8.110;2023-10-09T01:31:36;8.10;99.90
21772;DHT22;11047;47.904;8.110;2023-10-09T01:34:09;8.00;99.90
21772;DHT22;11047;47.904;8.110;2023-10-09T01:36:38;8.10;99.90
21772;DHT22;11047;47.904;8.110;2023-10-09T01:39:08;8.00;99.90
21772;DHT22;11047;47.904;8.110;2023-10-09T01:41:48;7.90;99.90
21772;DHT22;11047;47.904;8.110;2023-10-09T01:44:15;8.00;99.90
21772;DHT22;11047;47.904;8.110;2023-10-09T01:46:42;7.80;99.90
21772;DHT22;11047;47.904;8.110;2023-10-09T01:49:11;7.80;99.90
21772;DHT22;11047;47.904;8.110;2023-10-09T01:51:43;7.90;99.90
21772;DHT22;11047;47.904;8.110;2023-10-09T01:54:11;7.80;99.90
21772;DHT22;11047;47.904;8.110;2023-10-09T01:56:53;8.00;99.90
21772;DHT22;11047;47.904;8.110;2023-10-09T01:59:22;7.90;99.90
21772;DHT22;11047;47.904;8.110;2023-10-09T02:01:48;7.90;99.90
21772;DHT22;11047;47.904;8.110;2023-10-09T02:04:20;7.80;99.90
21772;DHT22;11047;47.904;8.110;2023-10-09T02:06:47;7.90;99.90
21772;DHT22;11047;47.904;8.110;2023-10-09T02:09:19;7.90;99.90
21772;DHT22;11047;47.904;8.110;2023-10-09T02:11:52;7.90;99.90
21772;DHT22;11047;47.904;8.110;2023-10-09T02:14:19;7.90;99.90
21772;DHT22;11047;47.904;8.110;2023-10-09T02:16:46;7.90;99.90
21772;DHT22;11047;47.904;8.110;2023-10-09T02:19:29;7.90;99.90
21772;DHT22;11047;47.904;8.110;2023-10-09T02:22:00;7.90;99.90
21772;DHT22;11047;47.904;8.110;2023-10-09T02:24:31;7.80;99.90
21772;DHT22;11047;47.904;8.110;2023-10-09T02:27:15;7.80;99.90
21772;DHT22;11047;47.904;8.110;2023-10-09T02:30:04;7.80;99.90
21772;DHT22;11047;47.904;8.110;2023-10-09T02:32:41;7.70;99.90
21772;DHT22;11047;47.904;8.110;2023-10-09T02:35:10;7.70;99.90
21772;DHT22;11047;47.904;8.110;2023-10-09T02:37:46;7.70;99.90
21772;DHT22;11047;47.904;8.110;2023-10-09T02:40:14;7.80;99.90
21772;DHT22;11047;47.904;8.110;2023-10-09T02:42:51;7.70;99.90
21772;DHT22;11047;47.904;8.110;2023-10-09T02:45:18;7.70;99.90
21772;DHT22;11047;47.904;8.110;2023-10-09T02:47:45;7.70;99.90
21772;DHT22;11047;47.904;8.110;2023-10-09T02:50:15;7.70;99.90
21772;DHT22;11047;47.904;8.110;2023-10-09T02:52:47;7.70;99.90
21772;DHT22;11047;47.904;8.110;2023-10-09T02:55:19;7.60;99.90
21772;DHT22;11047;47.904;8.110;2023-10-09T02:57:51;7.70;99.90
21772;DHT22;11047;47.904;8.110;2023-10-09T03:00:31;7.60;99.90
21772;DHT22;11047;47.904;8.110;2023-10-09T03:03:02;7.70;99.90
21772;DHT22;11047;47.904;8.110;2023-10-09T03:05:32;7.70;99.90
21772;DHT22;11047;47.904;8.110;2023-10-09T03:07:58;7.70;99.90
21772;DHT22;11047;47.904;8.110;2023-10-09T03:10:27;7.60;99.90
21772;DHT22;11047;47.904;8.110;2023-10-09T03:12:54;7.70;99.90
21772;DHT22;11047;47.904;8.110;2023-10-09T03:15:21;7.70;99.90
21772;DHT22;11047;47.904;8.110;2023-10-09T03:17:48;7.90;99.90
21772;DHT22;11047;47.904;8.110;2023-10-09T03:20:16;7.60;99.90
21772;DHT22;11047;47.904;8.110;2023-10-09T03:22:44;7.70;99.90
21772;DHT22;11047;47.904;8.110;2023-10-09T03:25:13;7.70;99.90
21772;DHT22;11047;47.904;8.110;2023-10-09T03:27:44;7.80;99.90
21772;DHT22;11047;47.904;8.110;2023-10-09T03:30:13;7.80;99.90
21772;DHT22;11047;47.904;8.110;2023-10-09T03:32:47;7.80;99.90
21772;DHT22;11047;47.904;8.110;2023-10-09T03:35:17;7.80;99.90
21772;DHT22;11047;47.904;8.110;2023-10-09T03:37:51;7.70;99.90
21772;DHT22;11047;47.904;8.110;2023-10-09T03:40:18;7.70;99.90
21772;DHT22;11047;47.904;8.110;2023-10-09T03:42:48;7.70;99.90
21772;DHT22;11047;47.904;8.110;2023-10-09T03:45:16;7.70;99.90
21772;DHT22;11047;47.904;8.110;2023-10-09T03:47:52;7.60;99.90
21772;DHT22;11047;47.904;8.110;2023-10-09T03:50:23;7.70;99.90
21772;DHT22;11047;47.904;8.110;2023-10-09T03:53:02;7.70;99.90
21772;DHT22;11047;47.904;8.110;2023-10-09T03:55:29;7.70;99.90
21772;DHT22;11047;47.904;8.110;2023-10-09T03:57:59;8.00;99.90
21772;DHT22;11047;47.904;8.110;2023-10-09T04:00:28;8.00;99.90
21772;DHT22;11047;47.904;8.110;2023-10-09T04:02:55;8.00;99.90
21772;DHT22;11047;47.904;8.110;2023-10-09T04:05:23;7.60;99.90
21772;DHT22;11047;47.904;8.110;2023-10-09T04:07:51;7.70;99.90
21772;DHT22;11047;47.904;8.110;2023-10-09T04:10:19;7.70;99.90
21772;DHT22;11047;47.904;8.110;2023-10-09T04:13:05;7.70;99.90
21772;DHT22;11047;47.904;8.110;2023-10-09T04:15:36;7.70;99.90
21772;DHT22;11047;47.904;8.110;2023-10-09T04:18:04;7.80;99.90
21772;DHT22;11047;47.904;8.110;2023-10-09T04:20:33;7.70;99.90
21772;DHT22;11047;47.904;8.110;2023-10-09T04:23:32;7.80;99.90
21772;DHT22;11047;47.904;8.110;2023-10-09T04:26:21;7.70;99.90
21772;DHT22;11047;47.904;8.110;2023-10-09T04:28:49;7.70;99.90
21772;DHT22;11047;47.904;8.110;2023-10-09T04:31:18;7.80;99.90
21772;DHT22;11047;47.904;8.110;2023-10-09T04:33:47;7.80;99.90
21772;DHT22;11047;47.904;8.110;2023-10-09T04:36:23;7.70;99.90
21772;DHT22;11047;47.904;8.110;2023-10-09T04:38:54;7.80;99.90
21772;DHT22;11047;47.904;8.110;2023-10-09T04:41:41;7.80;99.90
21772;DHT22;11047;47.904;8.110;2023-10-09T04:44:20;7.80;99.90
21772;DHT22;11047;47.904;8.110;2023-10-09T04:46:49;7.90;99.90
21772;DHT22;11047;47.904;8.110;2023-10-09T04:49:30;7.80;99.90
21772;DHT22;11047;47.904;8.110;2023-10-09T04:52:11;8.10;99.90
21772;DHT22;11047;47.904;8.110;2023-10-09T04:54:56;8.00;99.90
21772;DHT22;11047;47.904;8.110;2023-10-09T04:57:42;8.30;99.90
21772;DHT22;11047;47.904;8.110;2023-10-09T05:00:15;7.80;99.90
21772;DHT22;11047;47.904;8.110;2023-10-09T05:03:08;7.90;99.90
21772;DHT22;11047;47.904;8.110;2023-10-09T05:05:38;7.80;99.90
21772;DHT22;11047;47.904;8.110;2023-10-09T05:08:25;7.80;99.90
21772;DHT22;11047;47.904;8.110;2023-10-09T05:10:55;7.90;99.90
21772;DHT22;11047;47.904;8.110;2023-10-09T05:13:41;7.80;99.90
21772;DHT22;11047;47.904;8.110;2023-10-09T05:16:12;7.80;99.90
21772;DHT22;11047;47.904;8.110;2023-10-09T05:18:44;7.90;99.90
21772;DHT22;11047;47.904;8.110;2023-10-09T05:21:21;7.90;99.90
21772;DHT22;11047;47.904;8.110;2023-10-09T05:24:06;7.80;99.90
21772;DHT22;11047;47.904;8.110;2023-10-09T05:26:49;7.70;99.90
21772;DHT22;11047;47.904;8.110;2023-10-09T05:29:19;7.80;99.90
21772;DHT22;11047;47.904;8.110;2023-10-09T05:32:02;7.70;99.90
21772;DHT22;11047;47.904;8.110;2023-10-09T05:37:16;7.70;99.90
21772;DHT22;11047;47.904;8.110;2023-10-09T05:39:48;8.10;99.90
21772;DHT22;11047;47.904;8.110;2023-10-09T05:42:44;7.70;99.90
21772;DHT22;11047;47.904;8.110;2023-10-09T05:45:12;7.70;99.90
21772;DHT22;11047;47.904;8.110;2023-10-09T05:48:31;7.60;99.90
21772;DHT22;11047;47.904;8.110;2023-10-09T05:51:20;7.60;99.90
21772;DHT22;11047;47.904;8.110;2023-10-09T05:54:01;7.70;99.90
21772;DHT22;11047;47.904;8.110;2023-10-09T05:56:51;7.80;99.90
21772;DHT22;11047;47.904;8.110;2023-10-09T05:59:55;7.90;99.90
21772;DHT22;11047;47.904;8.110;2023-10-09T06:02:40;7.90;99.90
21772;DHT22;11047;47.904;8.110;2023-10-09T06:05:25;8.00;99.90
21772;DHT22;11047;47.904;8.110;2023-10-09T06:08:09;8.10;99.90
21772;DHT22;11047;47.904;8.110;2023-10-09T06:10:38;8.20;99.90
21772;DHT22;11047;47.904;8.110;2023-10-09T06:13:07;8.20;99.90
21772;DHT22;11047;47.904;8.110;2023-10-09T06:15:55;8.20;99.90
21772;DHT22;11047;47.904;8.110;2023-10-09T06:18:46;8.60;99.90
21772;DHT22;11047;47.904;8.110;2023-10-09T06:21:21;8.60;99.90
21772;DHT22;11047;47.904;8.110;2023-10-09T06:24:06;8.50;99.90
21772;DHT22;11047;47.904;8.110;2023-10-09T06:26:42;8.60;99.90
21772;DHT22;11047;47.904;8.110;2023-10-09T06:29:33;8.90;99.90
21772;DHT22;11047;47.904;8.110;2023-10-09T06:32:02;8.80;99.90
21772;DHT22;11047;47.904;8.110;2023-10-09T06:35:00;8.90;99.90
21772;DHT22;11047;47.904;8.110;2023-10-09T07:01:23;10.30;99.90
21772;DHT22;11047;47.904;8.110;2023-10-09T07:04:05;10.40;99.90
21772;DHT22;11047;47.904;8.110;2023-10-09T07:06:44;10.60;99.90
21772;DHT22;11047;47.904;8.110;2023-10-09T07:09:18;10.80;99.90
21772;DHT22;11047;47.904;8.110;2023-10-09T07:11:46;10.80;99.90
21772;DHT22;11047;47.904;8.110;2023-10-09T07:14:33;11.00;99.90
21772;DHT22;11047;47.904;8.110;2023-10-09T07:17:15;11.20;99.90
21772;DHT22;11047;47.904;8.110;2023-10-09T07:19:47;11.30;99.90
21772;DHT22;11047;47.904;8.110;2023-10-09T07:22:35;11.50;99.90
21772;DHT22;11047;47.904;8.110;2023-10-09T07:25:18;11.60;99.90
21772;DHT22;11047;47.904;8.110;2023-10-09T07:27:58;11.80;99.90
21772;DHT22;11047;47.904;8.110;2023-10-09T07:30:25;12.00;99.90
21772;DHT22;11047;47.904;8.110;2023-10-09T07:33:06;12.30;99.90
21772;DHT22;11047;47.904;8.110;2023-10-09T07:35:44;12.50;99.90
21772;DHT22;11047;47.904;8.110;2023-10-09T07:38:21;12.50;99.90
21772;DHT22;11047;47.904;8.110;2023-10-09T07:40:54;12.70;99.90
21772;DHT22;11047;47.904;8.110;2023-10-09T07:43:46;12.90;99.90
21772;DHT22;11047;47.904;8.110;2023-10-09T07:46:17;13.20;99.90
21772;DHT22;11047;47.904;8.110;2023-10-09T07:49:00;13.40;99.90
21772;DHT22;11047;47.904;8.110;2023-10-09T07:51:35;13.50;99.90
21772;DHT22;11047;47.904;8.110;2023-10-09T07:54:03;13.70;99.90
21772;DHT22;11047;47.904;8.110;2023-10-09T07:56:43;13.90;99.90
21772;DHT22;11047;47.904;8.110;2023-10-09T07:59:12;14.10;99.90
21772;DHT22;11047;47.904;8.110;2023-10-09T08:01:40;14.20;99.90
21772;DHT22;11047;47.904;8.110;2023-10-09T08:04:19;14.40;99.90
21772;DHT22;11047;47.904;8.110;2023-10-09T08:07:03;14.50;99.90
21772;DHT22;11047;47.904;8.110;2023-10-09T08:09:32;14.70;99.90
21772;DHT22;11047;47.904;8.110;2023-10-09T08:12:12;14.90;99.90
21772;DHT22;11047;47.904;8.110;2023-10-09T08:15:07;15.10;99.90
21772;DHT22;11047;47.904;8.110;2023-10-09T08:17:46;15.40;99.90
21772;DHT22;11047;47.904;8.110;2023-10-09T08:20:18;15.60;99.90
21772;DHT22;11047;47.904;8.110;2023-10-09T08:22:51;16.00;99.90
21772;DHT22;11047;47.904;8.110;2023-10-09T08:25:18;16.30;99.90
21772;DHT22;11047;47.904;8.110;2023-10-09T08:27:56;16.50;99.90
21772;DHT22;11047;47.904;8.110;2023-10-09T08:30:49;16.60;99.90
21772;DHT22;11047;47.904;8.110;2023-10-09T08:33:34;16.70;99.90
21772;DHT22;11047;47.904;8.110;2023-10-09T08:36:14;16.80;99.90
21772;DHT22;11047;47.904;8.110;2023-10-09T08:38:48;16.90;99.90
21772;DHT22;11047;47.904;8.110;2023-10-09T08:41:15;17.00;99.90
21772;DHT22;11047;47.904;8.110;2023-10-09T08:43:51;17.10;99.90
21772;DHT22;11047;47.904;8.110;2023-10-09T08:46:24;17.10;99.90
21772;DHT22;11047;47.904;8.110;2023-10-09T08:48:55;17.20;99.90
21772;DHT22;11047;47.904;8.110;2023-10-09T08:51:24;17.30;99.90
21772;DHT22;11047;47.904;8.110;2023-10-09T08:54:16;17.50;99.90
21772;DHT22;11047;47.904;8.110;2023-10-09T08:56:45;17.20;99.90
21772;DHT22;11047;47.904;8.110;2023-10-09T08:59:16;17.90;99.90
21772;DHT22;11047;47.904;8.110;2023-10-09T09:01:45;18.20;99.90
21772;DHT22;11047;47.904;8.110;2023-10-09T09:04:36;18.40;99.90
21772;DHT22;11047;47.904;8.110;2023-10-09T09:07:06;18.80;99.90
21772;DHT22;11047;47.904;8.110;2023-10-09T09:09:33;19.50;99.90
21772;DHT22;11047;47.904;8.110;2023-10-09T09:12:04;19.90;99.90
21772;DHT22;11047;47.904;8.110;2023-10-09T09:14:37;20.10;99.90
21772;DHT22;11047;47.904;8.110;2023-10-09T09:17:04;20.20;99.90
21772;DHT22;11047;47.904;8.110;2023-10-09T09:19:33;20.30;99.90
21772;DHT22;11047;47.904;8.110;2023-10-09T09:22:03;20.50;99.90
21772;DHT22;11047;47.904;8.110;2023-10-09T09:24:40;20.40;99.90
21772;DHT22;11047;47.904;8.110;2023-10-09T09:27:12;20.40;99.90
21772;DHT22;11047;47.904;8.110;2023-10-09T09:29:56;20.20;99.90
21772;DHT22;11047;47.904;8.110;2023-10-09T09:32:33;20.10;99.90
21772;DHT22;11047;47.904;8.110;2023-10-09T09:35:15;20.10;99.90
21772;DHT22;11047;47.904;8.110;2023-10-09T09:37:52;20.00;99.90
21772;DHT22;11047;47.904;8.110;2023-10-09T09:40:21;20.10;99.90
21772;DHT22;11047;47.904;8.110;2023-10-09T09:43:09;20.30;99.90
21772;DHT22;11047;47.904;8.110;2023-10-09T09:45:47;20.30;99.90
21772;DHT22;11047;47.904;8.110;2023-10-09T09:48:16;20.50;99.90
21772;DHT22;11047;47.904;8.110;2023-10-09T09:50:43;20.60;99.90
21772;DHT22;11047;47.904;8.110;2023-10-09T09:53:11;20.90;99.90
21772;DHT22;11047;47.904;8.110;2023-10-09T09:55:46;21.40;99.90
21772;DHT22;11047;47.904;8.110;2023-10-09T09:58:21;21.60;99.90
21772;DHT22;11047;47.904;8.110;2023-10-09T10:00:52;21.90;99.90
21772;DHT22;11047;47.904;8.110;2023-10-09T10:03:39;22.20;99.90
21772;DHT22;11047;47.904;8.110;2023-10-09T10:06:10;22.60;99.90
21772;DHT22;11047;47.904;8.110;2023-10-09T10:08:41;22.70;99.90
21772;DHT22;11047;47.904;8.110;2023-10-09T10:11:42;22.80;99.90
21772;DHT22;11047;47.904;8.110;2023-10-09T10:14:09;22.80;99.90
21772;DHT22;11047;47.904;8.110;2023-10-09T10:17:01;22.90;99.90
21772;DHT22;11047;47.904;8.110;2023-10-09T10:20:00;22.90;99.90
21772;DHT22;11047;47.904;8.110;2023-10-09T10:22:48;22.70;99.90
21772;DHT22;11047;47.904;8.110;2023-10-09T10:25:34;22.70;99.90
21772;DHT22;11047;47.904;8.110;2023-10-09T10:28:18;22.60;99.90
21772;DHT22;11047;47.904;8.110;2023-10-09T10:30:54;22.40;99.90
21772;DHT22;11047;47.904;8.110;2023-10-09T10:33:21;22.20;99.90
21772;DHT22;11047;47.904;8.110;2023-10-09T10:35:51;22.00;99.90
21772;DHT22;11047;47.904;8.110;2023-10-09T10:38:25;21.90;99.90
21772;DHT22;11047;47.904;8.110;2023-10-09T10:41:08;21.70;99.90
21772;DHT22;11047;47.904;8.110;2023-10-09T10:43:40;21.70;99.90
21772;DHT22;11047;47.904;8.110;2023-10-09T10:46:25;21.60;99.90
21772;DHT22;11047;47.904;8.110;2023-10-09T10:49:00;21.60;99.90
21772;DHT22;11047;47.904;8.110;2023-10-09T10:51:44;22.00;99.90
21772;DHT22;11047;47.904;8.110;2023-10-09T10:54:24;22.10;99.90
21772;DHT22;11047;47.904;8.110;2023-10-09T10:57:26;22.20;99.90
21772;DHT22;11047;47.904;8.110;2023-10-09T11:00:10;22.40;99.90
21772;DHT22;11047;47.904;8.110;2023-10-09T11:03:00;22.40;99.90
21772;DHT22;11047;47.904;8.110;2023-10-09T11:05:41;22.50;99.90
21772;DHT22;11047;47.904;8.110;2023-10-09T11:08:30;22.90;99.90
21772;DHT22;11047;47.904;8.110;2023-10-09T11:11:11;22.70;99.90
21772;DHT22;11047;47.904;8.110;2023-10-09T11:13:42;22.60;99.90
21772;DHT22;11047;47.904;8.110;2023-10-09T11:16:26;22.60;99.90
21772;DHT22;11047;47.904;8.110;2023-10-09T11:19:22;22.50;99.90
21772;DHT22;11047;47.904;8.110;2023-10-09T11:22:05;22.30;99.90
21772;DHT22;11047;47.904;8.110;2023-10-09T11:25:28;22.20;99.90
21772;DHT22;11047;47.904;8.110;2023-10-09T11:28:17;22.40;99.90
21772;DHT22;11047;47.904;8.110;2023-10-09T11:31:06;22.40;99.90
21772;DHT22;11047;47.904;8.110;2023-10-09T11:33:49;22.40;99.90
21772;DHT22;11047;47.904;8.110;2023-10-09T11:36:17;22.40;99.90
21772;DHT22;11047;47.904;8.110;2023-10-09T11:39:12;22.30;99.90
21772;DHT22;11047;47.904;8.110;2023-10-09T11:41:49;22.40;99.90
21772;DHT22;11047;47.904;8.110;2023-10-09T11:44:35;22.30;99.90
21772;DHT22;11047;47.904;8.110;2023-10-09T11:47:05;22.20;99.90
21772;DHT22;11047;47.904;8.110;2023-10-09T11:49:56;22.10;99.90
21772;DHT22;11047;47.904;8.110;2023-10-09T11:52:56;22.00;99.90
21772;DHT22;11047;47.904;8.110;2023-10-09T11:55:35;21.90;99.90
21772;DHT22;11047;47.904;8.110;2023-10-09T11:58:03;21.80;99.90
21772;DHT22;11047;47.904;8.110;2023-10-09T12:00:30;21.90;99.90
21772;DHT22;11047;47.904;8.110;2023-10-09T12:03:08;21.80;99.90
21772;DHT22;11047;47.904;8.110;2023-10-09T12:05:59;21.80;99.90
21772;DHT22;11047;47.904;8.110;2023-10-09T12:08:30;21.90;99.90
21772;DHT22;11047;47.904;8.110;2023-10-09T12:10:58;22.00;99.90
21772;DHT22;11047;47.904;8.110;2023-10-09T12:13:28;22.10;99.90
21772;DHT22;11047;47.904;8.110;2023-10-09T12:15:55;22.10;99.90
21772;DHT22;11047;47.904;8.110;2023-10-09T12:18:23;22.10;99.90
21772;DHT22;11047;47.904;8.110;2023-10-09T12:20:51;22.00;99.90
21772;DHT22;11047;47.904;8.110;2023-10-09T12:23:20;22.10;99.90
21772;DHT22;11047;47.904;8.110;2023-10-09T12:25:49;22.20;99.90
21772;DHT22;11047;47.904;8.110;2023-10-09T12:28:39;22.50;99.90
21772;DHT22;11047;47.904;8.110;2023-10-09T12:31:06;22.80;99.90
21772;DHT22;11047;47.904;8.110;2023-10-09T12:33:33;22.90;99.90
21772;DHT22;11047;47.904;8.110;2023-10-09T12:36:05;23.10;99.90
21772;DHT22;11047;47.904;8.110;2023-10-09T12:38:33;23.00;99.90
21772;DHT22;11047;47.904;8.110;2023-10-09T12:41:02;23.10;99.90
21772;DHT22;11047;47.904;8.110;2023-10-09T12:43:34;23.00;99.90
21772;DHT22;11047;47.904;8.110;2023-10-09T12:46:05;23.00;99.90
21772;DHT22;11047;47.904;8.110;2023-10-09T12:48:33;22.90;99.90
21772;DHT22;11047;47.904;8.110;2023-10-09T12:51:01;22.70;99.90
21772;DHT22;11047;47.904;8.110;2023-10-09T12:53:33;22.70;99.90
21772;DHT22;11047;47.904;8.110;2023-10-09T12:56:13;22.50;99.90
21772;DHT22;11047;47.904;8.110;2023-10-09T12:58:41;22.60;99.90
21772;DHT22;11047;47.904;8.110;2023-10-09T13:01:17;22.50;99.90
21772;DHT22;11047;47.904;8.110;2023-10-09T13:03:46;22.50;99.90
21772;DHT22;11047;47.904;8.110;2023-10-09T13:06:15;22.50;99.90
21772;DHT22;11047;47.904;8.110;2023-10-09T13:08:50;22.50;99.90
21772;DHT22;11047;47.904;8.110;2023-10-09T13:11:18;22.50;99.90
21772;DHT22;11047;47.904;8.110;2023-10-09T13:13:47;22.60;99.90
21772;DHT22;11047;47.904;8.110;2023-10-09T13:16:18;22.50;99.90
21772;DHT22;11047;47.904;8.110;2023-10-09T13:18:49;22.40;99.90
21772;DHT22;11047;47.904;8.110;2023-10-09T13:21:26;22.30;99.90
21772;DHT22;11047;47.904;8.110;2023-10-09T13:23:58;22.30;99.90
21772;DHT22;11047;47.904;8.110;2023-10-09T13:26:27;22.30;99.90
21772;DHT22;11047;47.904;8.110;2023-10-09T13:28:56;22.40;99.90
21772;DHT22;11047;47.904;8.110;2023-10-09T13:31:25;22.30;99.90
21772;DHT22;11047;47.904;8.110;2023-10-09T13:33:53;22.30;99.90
21772;DHT22;11047;47.904;8.110;2023-10-09T13:36:21;22.40;99.90
21772;DHT22;11047;47.904;8.110;2023-10-09T13:39:02;22.40;99.90
21772;DHT22;11047;47.904;8.110;2023-10-09T13:41:49;22.30;99.90
21772;DHT22;11047;47.904;8.110;2023-10-09T13:44:16;22.40;99.90
21772;DHT22;11047;47.904;8.110;2023-10-09T13:46:43;22.40;99.90
21772;DHT22;11047;47.904;8.110;2023-10-09T13:49:10;22.30;99.90
21772;DHT22;11047;47.904;8.110;2023-10-09T13:51:39;22.30;99.90
21772;DHT22;11047;47.904;8.110;2023-10-09T13:54:12;22.40;99.90
21772;DHT22;11047;47.904;8.110;2023-10-09T13:56:45;22.30;99.90
21772;DHT22;11047;47.904;8.110;2023-10-09T13:59:12;22.20;99.90
21772;DHT22;11047;47.904;8.110;2023-10-09T14:01:39;22.10;99.90
21772;DHT22;11047;47.904;8.110;2023-10-09T14:04:13;22.10;99.90
21772;DHT22;11047;47.904;8.110;2023-10-09T14:06:44;22.00;99.90
21772;DHT22;11047;47.904;8.110;2023-10-09T14:09:13;22.00;99.90
21772;DHT22;11047;47.904;8.110;2023-10-09T14:11:57;21.70;99.90
21772;DHT22;11047;47.904;8.110;2023-10-09T14:14:35;21.60;99.90
21772;DHT22;11047;47.904;8.110;2023-10-09T14:17:04;21.70;99.90
21772;DHT22;11047;47.904;8.110;2023-10-09T14:19:38;21.70;99.90
21772;DHT22;11047;47.904;8.110;2023-10-09T14:22:04;21.80;99.90
21772;DHT22;11047;47.904;8.110;2023-10-09T14:24:37;21.90;99.90
21772;DHT22;11047;47.904;8.110;2023-10-09T14:27:06;21.80;99.90
21772;DHT22;11047;47.904;8.110;2023-10-09T14:29:36;21.80;99.90
21772;DHT22;11047;47.904;8.110;2023-10-09T14:32:03;21.80;99.90
21772;DHT22;11047;47.904;8.110;2023-10-09T14:34:31;21.80;99.90
21772;DHT22;11047;47.904;8.110;2023-10-09T14:37:01;21.60;99.90
21772;DHT22;11047;47.904;8.110;2023-10-09T14:39:29;21.50;99.90
21772;DHT22;11047;47.904;8.110;2023-10-09T14:41:57;21.50;99.90
21772;DHT22;11047;47.904;8.110;2023-10-09T14:44:24;21.40;99.90
21772;DHT22;11047;47.904;8.110;2023-10-09T14:46:53;21.40;99.90
21772;DHT22;11047;47.904;8.110;2023-10-09T14:49:21;21.40;99.90
21772;DHT22;11047;47.904;8.110;2023-10-09T14:51:49;21.20;99.90
21772;DHT22;11047;47.904;8.110;2023-10-09T14:54:17;21.30;99.90
21772;DHT22;11047;47.904;8.110;2023-10-09T14:56:44;21.30;99.90
21772;DHT22;11047;47.904;8.110;2023-10-09T14:59:13;21.20;99.90
21772;DHT22;11047;47.904;8.110;2023-10-09T15:01:40;21.20;99.90
21772;DHT22;11047;47.904;8.110;2023-10-09T15:04:07;21.20;99.90
21772;DHT22;11047;47.904;8.110;2023-10-09T15:06:40;21.20;99.90
21772;DHT22;11047;47.904;8.110;2023-10-09T15:09:07;21.10;99.90
21772;DHT22;11047;47.904;8.110;2023-10-09T15:11:47;21.10;99.90
21772;DHT22;11047;47.904;8.110;2023-10-09T15:14:15;21.10;99.90
21772;DHT22;11047;47.904;8.110;2023-10-09T15:16:44;21.10;99.90
21772;DHT22;11047;47.904;8.110;2023-10-09T15:19:11;21.00;99.90
21772;DHT22;11047;47.904;8.110;2023-10-09T15:21:39;21.00;99.90
21772;DHT22;11047;47.904;8.110;2023-10-09T15:24:10;21.00;99.90
21772;DHT22;11047;47.904;8.110;2023-10-09T15:26:38;21.00;99.90
21772;DHT22;11047;47.904;8.110;2023-10-09T15:29:05;20.90;99.90
21772;DHT22;11047;47.904;8.110;2023-10-09T15:31:36;20.90;99.90
21772;DHT22;11047;47.904;8.110;2023-10-09T15:34:04;20.80;99.90
21772;DHT22;11047;47.904;8.110;2023-10-09T15:36:35;20.80;99.90
21772;DHT22;11047;47.904;8.110;2023-10-09T15:39:02;20.80;99.90
21772;DHT22;11047;47.904;8.110;2023-10-09T15:41:33;20.80;99.90
21772;DHT22;11047;47.904;8.110;2023-10-09T15:44:00;20.80;99.90
21772;DHT22;11047;47.904;8.110;2023-10-09T15:46:27;20.60;99.90
21772;DHT22;11047;47.904;8.110;2023-10-09T15:49:00;20.50;99.90
21772;DHT22;11047;47.904;8.110;2023-10-09T15:51:27;20.40;99.90
21772;DHT22;11047;47.904;8.110;2023-10-09T15:53:55;20.40;99.90
21772;DHT22;11047;47.904;8.110;2023-10-09T15:56:22;20.30;99.90
21772;DHT22;11047;47.904;8.110;2023-10-09T15:58:49;20.20;99.90
21772;DHT22;11047;47.904;8.110;2023-10-09T16:01:19;20.20;99.90
21772;DHT22;11047;47.904;8.110;2023-10-09T16:03:48;20.20;99.90
21772;DHT22;11047;47.904;8.110;2023-10-09T16:06:17;20.00;99.90
21772;DHT22;11047;47.904;8.110;2023-10-09T16:08:46;19.90;99.90
21772;DHT22;11047;47.904;8.110;2023-10-09T16:11:17;19.80;99.90
21772;DHT22;11047;47.904;8.110;2023-10-09T16:13:44;19.70;99.90
21772;DHT22;11047;47.904;8.110;2023-10-09T16:16:11;19.50;99.90
21772;DHT22;11047;47.904;8.110;2023-10-09T16:18:39;19.40;99.90
21772;DHT22;11047;47.904;8.110;2023-10-09T16:21:06;19.10;99.90
21772;DHT22;11047;47.904;8.110;2023-10-09T16:23:39;19.10;99.90
21772;DHT22;11047;47.904;8.110;2023-10-09T16:26:07;19.00;99.90
21772;DHT22;11047;47.904;8.110;2023-10-09T16:28:35;18.90;99.90
21772;DHT22;11047;47.904;8.110;2023-10-09T16:31:02;18.90;99.90
21772;DHT22;11047;47.904;8.110;2023-10-09T16:33:31;18.80;99.90
21772;DHT22;11047;47.904;8.110;2023-10-09T16:35:59;18.60;99.90
21772;DHT22;11047;47.904;8.110;2023-10-09T16:38:26;18.40;99.90
21772;DHT22;11047;47.904;8.110;2023-10-09T16:40:55;18.40;99.90
21772;DHT22;11047;47.904;8.110;2023-10-09T16:43:25;18.30;99.90
21772;DHT22;11047;47.904;8.110;2023-10-09T16:45:53;18.10;99.90
21772;DHT22;11047;47.904;8.110;2023-10-09T16:48:24;17.90;99.90
21772;DHT22;11047;47.904;8.110;2023-10-09T16:50:54;17.70;99.90
21772;DHT22;11047;47.904;8.110;2023-10-09T16:53:20;17.50;99.90
21772;DHT22;11047;47.904;8.110;2023-10-09T16:55:48;17.50;99.90
21772;DHT22;11047;47.904;8.110;2023-10-09T16:58:17;17.40;99.90
21772;DHT22;11047;47.904;8.110;2023-10-09T17:00:44;17.40;99.90